Pangborn Memorial Airport Wenatchee US
ICAO: KEAT
IATA: EAT
Category: Medium
Scheduled Services: No

Elevation: 1249 ft
TransAlt. 18000 ft.

Airport Communications:
ASOS:119.925
SEATTLE CNTR:126.1
SEATTLE RDO:122.6
CTAF/UNICOM:123

KEAT Zoom In..

If you have problems with the map follow the link
https://www.worldairports.se/pages/airport.php?
ICAO=KEAT

Runways:

(A) RW 07 length 4460 ft width 75 ft
---- / hdg 71

(B) RW 12 length 5700 ft width 150 ft
ILS 109.35 / hdg 116

(C) RW 25 length 4460 ft width 75 ft
---- / hdg 251

(D) RW 30 length 5700 ft width 150 ft
---- / hdg 296

Location; KEAT
Day. 08 / Time. 03.55 Zulu
* Altimeter: 29.78
* Temperature: 03° c. 37.4°f.
* Wind from: 310° Speed 03 kn.
Dewpoint: 02° c.
Visibility: 10 Statute Miles.
Clouds: Overcast 1300 ft.

KEAT 080355Z AUTO 31003KT 10SM OVC013 03/02 A2978 RMK AO2 SLP093 T00330017


Wind From 310°
Speed 03 kn.

 
 
jpsmedia worldairports.se 2019   terms of use